Aérodrome :
LOGIN :

S'inscrire | Disclaimer

   EN    FR    IT 

 










Légende :    VFR   VFR Marginal   IFR   IFR Intensif   IFR Très Intensif
Visi : 
Plafond : 
>= 8 km
>= 3000ft
5 à 8 km
1000 à 3000 ft
1500m à 5 km
500 à 1000 ft
800 à 1500m
200 à 500 ft
< 800m
< 200 ft
Symboles :   Orages  Brouillard  Fortes neiges  Fortes précipitations  Vent > 20 kt
SIGMETs :   Divers  Orages  Givrage  Turbulence  Onde Orograph.  Cendres Volcan.







- Altitude de l'aérodrome : 74 ft
- Code IATA : MRS
- Voir les cartes d'approche


LFML - Marseille / Marignane

DERNIER METAR :
  • 251100Z AUTO 33008KT 7000 SCT048 BKN130 07/01 Q1008 NOSIG

METARs EXPIRÉS :
  • 251030Z AUTO VRB03KT 5000 BR NSC 07/03 Q1008 NOSIG
  • 251000Z AUTO 29003KT 5000 BR NSC 06/02 Q1008 NOSIG
  • 250930Z AUTO VRB02KT 6000 NSC 05/02 Q1008 BECMG 32012KT
  • 250900Z AUTO VRB02KT 4800 BR ///CB 05/02 Q1008 BECMG 32012KT CAVOK
  • 250830Z AUTO 31003KT 270V360 3900 BR FEW005/// OVC068/// ///CB 05/03 Q1008 BECMG CAVOK

TAF TAF LFML
Valide du 25 à 09h jusqu'au 26 à 15h UTC


250800Z 2509/2615 VRB02KT 4000 BR BKN050
BECMG 2510/2513 32012KT CAVOK
TEMPO 2518/2603 4000 -RA BR BKN014 TX10/2514Z TNM01/2605Z
ATIS : +33 4 42 31 15 15
Pas de NOTAMs connus pour ce terrain.



MET'MAP, la Météo Aéronautique d'un coup d'oeil ! - Copyright ORBIFLY Décembre 2007 - Disclaimer

ORBIFLY MET'MAP TEAM :

Programmation & Développement : Alexandra Zaïnal
Conception & Développement : Baudouin d'Aumeries
Co-Programmation & Développement : Marc-Olivier Méhu
Soutien technique & logistique : Manuel Goepfert

Contact : metmap@orbifly.com




SOURCES & CREDITS :

   NOAA